Alexandria, Brazil
Current Conditions -  °F | °C
As of 10:00 AM on Friday 24 Oct 2014 (Local Time) from SBJU Reporting Station
Few Clouds Few Clouds  
Wind Chill: 88°   Ceiling: Unl
Heat Index: 91°   Visibility: 6mi
Dew Point: 68°   Wind: 10mph
Humidity: 52%   Direction: 170°S
Pressure: 30.06"   Gusts: NA
Location:  6.41°S, 38.02°W
Report Text: SBJU 241300Z 17009KT 9999 FEW020 31/20 Q1018
Loading
Personal Weather Stations






























Interactive Weather Map
Tropical Storm Tracking
New forecast layout! Learn more

10-Day Weather Forecast

Advertisements
Track Severe Weather on mobile